Tiempo atmosférico en la estación meteorológica de Villadepera, Zamora (790 m.)



Fecha
DESCASC
Temp. máxima en grados centígrados (hora)
DESCASC
Temp. mínima en grados centígrados (hora)
DESCASC
Temp. media en grados centígrados
DESCASC
Racha de viento máxima en m/sg (hora)
DESCASC
Velocidad máxima media en intervalos de 10 minutos(hora)
DESCASC
Precipitaciones diarias en mm
DESCASC
Precipitaciones de 00:00 a 06:00 en mm
DESCASC
Precipitaciones de 06:00 a 12:00 en mm
DESCASC
Precipitaciones de 12:00 a 18:00 en mm
DESCASC
Precipitaciones de 18:00 a 24:00 en mm
DESCASC
28-02-2021 12.3 (17:10) 1.3 (07:50) 6.8 12.5 (04:30) 10.28 (04:40) 0 0 0 0 0
27-02-2021 13.5 (15:30) 4.6 (08:10) 9 11.39 (21:20) 8.33 (22:10) 0 0 0 0 0
26-02-2021 12.5 (17:00) 5.8 (08:30) 9.2 13.33 (11:10) 10.28 (11:20) 0 0 0 0 0
25-02-2021 11.4 (16:30) 6.7 (00:00) 9 10 (23:50) 6.39 (23:20) 0 0 0 0 0
24-02-2021 15.1 (15:30) 1.2 (00:00) 8.2 11.39 (16:20) 8.33 (16:20) 0 0 0 0 0
23-02-2021 14.1 (16:50) 1.1 (00:00) 7.6 7.78 (13:30) 4.17 (15:20) 0 0 0 0 0
22-02-2021 10.9 (17:00) -0.4 (00:00) 5.2 7.78 (02:20) 5.83 (02:10) 0 0 0 0 0
21-02-2021 11.3 (05:30) 3.3 (00:00) 7.3 17.22 (07:50) 10 (07:50) 2 0 1.2 0.4 0.4
20-02-2021 10.8 (14:20) 5.7 (00:00) 8.3 19.17 (12:30) 14.44 (11:30) 2 0 0 2 0
19-02-2021 12.2 (14:00) 7.2 (00:00) 9.7 15.56 (14:00) 11.67 (13:50) 3.4 3 0.4 0 0
18-02-2021 11.1 (16:00) 6.8 (00:00) 9 18.33 (13:30) 12.22 (13:10) 0.6 0 0.2 0.4 0
17-02-2021 12.1 (15:20) 6.8 (00:00) 9.5 10.83 (15:10) 8.06 (15:20) 1.2 0.2 0 1 0
16-02-2021 11 (15:30) 6.4 (00:00) 8.7 15.56 (12:20) 11.67 (12:20) 5.2 0 0 1 4.2
15-02-2021 16.1 (16:30) 3.9 (00:00) 10 6.39 (16:00) 5 (23:50) 0 0 0 0 0
14-02-2021 15.8 (15:50) 3.3 (00:00) 9.6 7.78 (16:30) 6.11 (20:50) 0 0 0 0 0
13-02-2021 12.5 (15:50) 4.1 (00:00) 8.3 8.61 (14:10) 6.11 (14:10) 0 0 0 0 0
12-02-2021 12.1 (16:20) 6.3 (00:00) 9.2 15.56 (00:10) 11.67 (00:10) 12.2 12.2 0 0 0
11-02-2021 13.6 (16:00) 5.8 (00:00) 9.7 12.5 (23:59) 9.17 (23:59) 3.8 0.4 1.2 0 2.2
10-02-2021 10.1 (15:20) 3.7 (00:00) 6.9 20.83 (02:00) 13.89 (02:00) 7.4 7.2 0 0 0.2
09-02-2021 6.5 (07:40) 2.5 (00:00) 4.5 21.67 (08:30) 13.61 (10:50) 33 4.2 15.6 7 6.2
08-02-2021 6.5 (12:20) 3.5 (00:00) 5 16.39 (02:10) 11.67 (14:20) 13.6 4.2 0.8 7 1.6
07-02-2021 6 (23:59) 0.9 (00:00) 3.4 13.89 (23:59) 10 (23:59) 3 0 0.2 0.6 2.2
06-02-2021 7.7 (00:00) 3.8 (00:00) 5.7 12.78 (11:00) 8.33 (11:00) 7.6 6.6 0.8 0.2 0
05-02-2021 8.7 (15:20) 4.9 (00:00) 6.8 8.89 (08:10) 6.11 (09:10) 15.8 1.4 4 0.2 10.2
04-02-2021 6.7 (00:40) 4.7 (00:00) 5.7 7.22 (00:50) 5.56 (00:50) 8.8 0 3.6 5.2 0
03-02-2021 10.7 (13:20) 6.2 (00:00) 8.4 16.94 (00:10) 12.22 (03:10) 4.8 2.8 1.8 0.2 0
02-02-2021 10.4 (16:40) 8.1 (08:50) 9.3 16.94 (22:50) 12.22 (22:50) 0.6 0.4 0.2 0 0
01-02-2021 11.8 (14:50) 7.5 (00:00) 9.7 19.72 (01:10) 14.17 (00:40) 0.4 0 0 0 0.4
31-01-2021 14.4 (16:20) 5.2 (00:00) 9.8 22.5 (17:20) 16.94 (17:20) 0.2 0.2 0 0 0

Gráficas

Temp. máximas Temp. mínimas Temp. medias Precipitaciones Rachas de viento máximas Velocidades máximas media en intervalos de 10 minutos

Datos horarios

Fecha y hora oficial Temperatura (ºC) Velocidad del viento (km/h) Dirección del viento Racha (km/h) Dirección de racha Precipitación (mm) Presión (hPa) Tendencia (hPa) Humedad (%)
2021-03-01 23:00:00 -- -- -- -- -- -- -- -- --
2021-03-01 22:00:00 -- -- -- -- -- -- -- -- --
2021-03-01 21:00:00 -- -- -- -- -- -- -- -- --
2021-03-01 20:00:00 -- -- -- -- -- -- -- -- --
2021-03-01 19:00:00 9.1 9 Este 19 Este 0.2 -- -- 90
2021-03-01 18:00:00 9.2 18 Sur 31 Sudoeste 0.4 -- -- 87
2021-03-01 17:00:00 12.5 13 Sudoeste 19 Oeste 0 -- -- 67
2021-03-01 16:00:00 12.5 6 Sudoeste 17 Sur 0 -- -- 70
2021-03-01 15:00:00 11.6 10 Sudoeste 15 Sudoeste 0 -- -- 74
2021-03-01 14:00:00 10.3 9 Sudoeste 18 Sudoeste 0.6 -- -- 81
2021-03-01 13:00:00 10.6 3 Sudeste 13 Sur 0 -- -- 79
2021-03-01 12:00:00 8.8 5 Este 12 Este 0 -- -- 86
2021-03-01 11:00:00 8.7 4 Sudeste 8 Sudeste 0 -- -- 88
2021-03-01 10:00:00 6.9 4 Nordeste 6 Norte 0 -- -- 92
2021-03-01 09:00:00 5.3 3 Nordeste 12 Este 2.2 -- -- 95
2021-03-01 08:00:00 5.2 3 Este 15 Sudeste 0.2 -- -- 91
2021-03-01 07:00:00 5.2 8 Sudeste 10 Este 0 -- -- 90
2021-03-01 06:00:00 3.8 8 Este 9 Este 0 -- -- 95
2021-03-01 05:00:00 4.3 4 Norte 11 Este 0 -- -- 92
2021-03-01 04:00:00 5.1 6 Este 11 Este 0 -- -- 90
2021-03-01 03:00:00 5.3 5 Este 10 Este 0 -- -- 87
2021-03-01 02:00:00 5.5 5 Este 8 Este 0 -- -- 87
2021-03-01 01:00:00 6.5 8 Este 10 Este 0 -- -- 83
2021-03-01 00:00:00 6.1 6 Este 12 Sudeste 0 -- -- 82
2021-02-28 23:00:00 7 8 Este 15 Este 0 -- -- 80
2021-02-28 22:00:00 7.4 6 Este 10 Este 0 -- -- 77
2021-02-28 21:00:00 7.6 6 Este 9 Nordeste 0 -- -- 72
2021-02-28 20:00:00 8.1 6 Nordeste 11 Nordeste 0 -- -- 70
2021-02-28 19:00:00 10.1 6 Este 10 Este 0 -- -- 65
2021-02-28 18:00:00 11.9 4 Este 10 Sudeste 0 -- -- 56
2021-02-28 17:00:00 12.1 4 Este 17 Este 0 -- -- 56
2021-02-28 16:00:00 11.7 6 Este 21 Este 0 -- -- 56
2021-02-28 15:00:00 11.4 11 Nordeste 18 Nordeste 0 -- -- 59
2021-02-28 14:00:00 10.2 9 Nordeste 21 Este 0 -- -- 66
2021-02-28 13:00:00 8.4 10 Nordeste 24 Nordeste 0 -- -- 72
2021-02-28 12:00:00 7.1 15 Nordeste 28 Nordeste 0 -- -- 75
2021-02-28 11:00:00 5.6 17 Nordeste 31 Nordeste 0 -- -- 78
2021-02-28 10:00:00 4 22 Nordeste 34 Nordeste 0 -- -- 83
2021-02-28 09:00:00 2.5 19 Nordeste 30 Nordeste 0 -- -- 86
2021-02-28 08:00:00 1.3 18 Nordeste 27 Nordeste 0 -- -- 89
2021-02-28 07:00:00 1.7 16 Nordeste 35 Nordeste 0 -- -- 88
2021-02-28 06:00:00 1.7 21 Nordeste 43 Nordeste 0 -- -- 90
2021-02-28 05:00:00 2.1 31 Nordeste 45 Nordeste 0 -- -- 87
2021-02-28 04:00:00 2.8 27 Nordeste 45 Nordeste 0 -- -- 82
2021-02-28 03:00:00 3.6 28 Nordeste 41 Nordeste 0 -- -- 75
2021-02-28 02:00:00 4.2 21 Nordeste 33 Nordeste 0 -- -- 68
2021-02-28 01:00:00 4.7 19 Nordeste 27 Nordeste 0 -- -- 65
2021-02-28 00:00:00 5.9 23 Nordeste 39 Nordeste 0 -- -- 64
2021-02-27 23:00:00 7.2 29 Nordeste 41 Este 0 -- -- 64
2021-02-27 22:00:00 8.2 28 Nordeste 41 Nordeste 0 -- -- 65
2021-02-27 21:00:00 9.4 22 Nordeste 31 Nordeste 0 -- -- 71
2021-02-27 20:00:00 10 16 Nordeste 25 Nordeste 0 -- -- 76
2021-02-27 19:00:00 11.3 13 Nordeste 25 Nordeste 0 -- -- 72
2021-02-27 18:00:00 12.9 16 Nordeste 30 Nordeste 0 -- -- 67
2021-02-27 17:00:00 13.5 19 Nordeste 31 Nordeste 0 -- -- 64
2021-02-27 16:00:00 13.2 23 Nordeste 33 Nordeste 0 -- -- 66
2021-02-27 15:00:00 13.2 22 Nordeste 34 Nordeste 0 -- -- 67
2021-02-27 14:00:00 12 22 Nordeste 36 Nordeste 0 -- -- 73
2021-02-27 13:00:00 11 23 Nordeste 33 Nordeste 0 -- -- 76
2021-02-27 12:00:00 8.8 23 Nordeste 32 Nordeste 0 -- -- 82
2021-02-27 11:00:00 8.2 20 Nordeste 37 Nordeste 0 -- -- 82
2021-02-27 10:00:00 6.3 23 Nordeste 33 Nordeste 0 -- -- 89
2021-02-27 09:00:00 4.9 25 Nordeste 32 Nordeste 0 -- -- 92
2021-02-27 08:00:00 4.7 18 Nordeste 30 Nordeste 0 -- -- 93
2021-02-27 07:00:00 5.3 18 Nordeste 29 Nordeste 0 -- -- 94
2021-02-27 06:00:00 5.2 18 Nordeste 33 Nordeste 0 -- -- 93
2021-02-27 05:00:00 5.3 17 Nordeste 26 Nordeste 0 -- -- 93
2021-02-27 04:00:00 5.7 17 Nordeste 28 Nordeste 0 -- -- 92
2021-02-27 03:00:00 6.1 18 Nordeste 29 Nordeste 0 -- -- 92
2021-02-27 02:00:00 6.5 13 Nordeste 25 Nordeste 0 -- -- 91
2021-02-27 01:00:00 7 12 Nordeste 24 Nordeste 0 -- -- 90
2021-02-27 00:00:00 7.6 14 Nordeste 24 Nordeste 0 -- -- 88
2021-02-26 23:00:00 8.1 16 Nordeste 26 Nordeste 0 -- -- 86
2021-02-26 22:00:00 8.8 18 Nordeste 24 Nordeste 0 -- -- 84
2021-02-26 21:00:00 9.4 15 Nordeste 21 Nordeste 0 -- -- 82
2021-02-26 20:00:00 10.1 13 Nordeste 16 Nordeste 0 -- -- 79
2021-02-26 19:00:00 11.1 10 Nordeste 14 Nordeste 0 -- -- 76
2021-02-26 18:00:00 12.2 11 Nordeste 24 Nordeste 0 -- -- 72
2021-02-26 17:00:00 12.5 15 Nordeste 26 Este 0 -- -- 71
2021-02-26 16:00:00 12.1 17 Nordeste 26 Este 0 -- -- 71
2021-02-26 15:00:00 11.8 18 Nordeste 28 Nordeste 0 -- -- 75
2021-02-26 14:00:00 11.2 17 Nordeste 30 Nordeste 0 -- -- 75
2021-02-26 13:00:00 10.7 22 Este 35 Nordeste 0 -- -- 76
2021-02-26 12:00:00 9.9 25 Nordeste 48 Nordeste 0 -- -- 80
2021-02-26 11:00:00 8.7 33 Nordeste 48 Nordeste 0 -- -- 84
2021-02-26 10:00:00 7 30 Nordeste 43 Nordeste 0 -- -- 90
2021-02-26 09:00:00 6.1 22 Nordeste 36 Nordeste 0 -- -- 93
2021-02-26 08:00:00 5.9 24 Nordeste 37 Nordeste 0 -- -- 93
2021-02-26 07:00:00 6.1 22 Nordeste 34 Nordeste 0 -- -- 93
2021-02-26 06:00:00 6.1 21 Nordeste 33 Nordeste 0 -- -- 93
2021-02-26 05:00:00 6.4 17 Nordeste 29 Nordeste 0 -- -- 92
2021-02-26 04:00:00 6.8 21 Nordeste 32 Este 0 -- -- 91
2021-02-26 03:00:00 7 23 Nordeste 32 Nordeste 0 -- -- 90
2021-02-26 02:00:00 7.1 15 Nordeste 28 Nordeste 0 -- -- 90
2021-02-26 01:00:00 7.8 18 Nordeste 35 Nordeste 0 -- -- 87
2021-02-26 00:00:00 8.7 23 Nordeste 36 Nordeste 0 -- -- 82
2021-02-25 23:00:00 9.2 19 Nordeste 30 Nordeste 0 -- -- 82
2021-02-25 22:00:00 9.6 18 Nordeste 27 Nordeste 0 -- -- 81
2021-02-25 21:00:00 9.8 16 Nordeste 22 Nordeste 0 -- -- 81
2021-02-25 20:00:00 9.8 12 Nordeste 18 Nordeste 0 -- -- 81
2021-02-25 19:00:00 10.2 10 Nordeste 16 Nordeste 0 -- -- 80
2021-02-25 18:00:00 10.9 11 Nordeste 17 Nordeste 0 -- -- 76
2021-02-25 17:00:00 11.3 3 Noroeste 12 Norte 0 -- -- 77
2021-02-25 16:00:00 11.3 3 Sudeste 10 Sur 0 -- -- 77
2021-02-25 15:00:00 10.2 5 Sudoeste 12 Sudoeste 0 -- -- 83
2021-02-25 14:00:00 8.9 7 Sudoeste 22 Sudoeste 0 -- -- 88
2021-02-25 13:00:00 8.9 15 Sudoeste 26 Sudoeste 0 -- -- 87
2021-02-25 12:00:00 9 19 Sudoeste 26 Sudoeste 0 -- -- 87
2021-02-25 11:00:00 9.2 16 Sudoeste 25 Sudoeste 0 -- -- 83
2021-02-25 10:00:00 7.6 5 Sudeste 16 Sudeste 0 -- -- 86
2021-02-25 09:00:00 7.2 4 Sudeste 10 Sur 0 -- -- 85
2021-02-25 08:00:00 7.3 9 Sur 12 Sur 0 -- -- 84
2021-02-25 07:00:00 7.3 8 Sudoeste 10 Sudoeste 0 -- -- 84
2021-02-25 06:00:00 7.3 3 Sudeste 8 Sudeste 0 -- -- 83
2021-02-25 05:00:00 8 8 Sudeste 10 Sudeste 0 -- -- 81
2021-02-25 04:00:00 7.8 7 Sudeste 11 Este 0 -- -- 82
2021-02-25 03:00:00 8.1 6 Este 9 Sudeste 0 -- -- 81
2021-02-25 02:00:00 8.3 9 Sudeste 17 Este 0 -- -- 81
2021-02-25 01:00:00 8.6 10 Este 14 Sur 0 -- -- 80
2021-02-25 00:00:00 9.8 10 Sur 18 Sudoeste 0 -- -- 77
2021-02-24 23:00:00 9.2 16 Sudoeste 19 Sudoeste 0 -- -- 79
2021-02-24 22:00:00 9.2 12 Sudoeste 20 Sudoeste 0 -- -- 77
2021-02-24 21:00:00 9.7 15 Sudoeste 22 Sudoeste 0 -- -- 76
2021-02-24 20:00:00 9.7 16 Sudoeste 21 Sudoeste 0 -- -- 73
2021-02-24 19:00:00 11.6 16 Sudoeste 24 Sudoeste 0 -- -- 66
2021-02-24 18:00:00 13.3 17 Sudoeste 33 Sudoeste 0 -- -- 60
2021-02-24 17:00:00 14.6 21 Sudoeste 41 Sudoeste 0 -- -- 56
2021-02-24 16:00:00 15 26 Sudoeste 37 Sudoeste 0 -- -- 55
2021-02-24 15:00:00 14.5 17 Sur 32 Sudoeste 0 -- -- 58
2021-02-24 14:00:00 14.5 18 Sudoeste 27 Sudoeste 0 -- -- 56
2021-02-24 13:00:00 12.8 9 Este 19 Sur 0 -- -- 59
2021-02-24 12:00:00 11 10 Este 17 Este 0 -- -- 67
2021-02-24 11:00:00 8.1 9 Este 13 Sudeste 0 -- -- 74
2021-02-24 10:00:00 5 8 Este 14 Este 0 -- -- 84
2021-02-24 09:00:00 2.7 10 Este 15 Este 0 -- -- 90
2021-02-24 08:00:00 1.8 10 Este 16 Este 0 -- -- 90
2021-02-24 07:00:00 1.3 7 Este 13 Sudeste 0 -- -- 90
2021-02-24 06:00:00 2.6 9 Sudeste 14 Sudeste 0 -- -- 83
2021-02-24 05:00:00 3.2 12 Sudeste 17 Sudeste 0 -- -- 82
2021-02-24 04:00:00 3.6 7 Este 14 Sudeste 0 -- -- 78
2021-02-24 03:00:00 3.6 11 Sudeste 13 Sudeste 0 -- -- 80
2021-02-24 02:00:00 5.5 3 Este 5 Este 0 -- -- 73
2021-02-24 01:00:00 5.8 5 Este 8 Este 0 -- -- 69
2021-02-24 00:00:00 7 5 Sudoeste 9 Sudoeste 0 -- -- 70
2021-02-23 23:00:00 6.5 8 Sudoeste 12 Sudoeste 0 -- -- 70
2021-02-23 22:00:00 6.6 11 Sudoeste 15 Sudoeste 0 -- -- 67
2021-02-23 21:00:00 7.5 13 Sudoeste 14 Sudoeste 0 -- -- 61
2021-02-23 20:00:00 8.6 12 Sudoeste 19 Sudoeste 0 -- -- 56
2021-02-23 19:00:00 12 7 Sur 16 Sur 0 -- -- 44
2021-02-23 18:00:00 13.5 13 Sur 21 Sur 0 -- -- 42
2021-02-23 17:00:00 14 13 Sur 22 Sur 0 -- -- 50
2021-02-23 16:00:00 13.7 11 Sur 24 Sur 0 -- -- 48
2021-02-23 15:00:00 13.5 12 Sur 22 Sudeste 0 -- -- 48
2021-02-23 14:00:00 12.4 9 Sudeste 28 Sudeste 0 -- -- 56
2021-02-23 13:00:00 11.6 6 Sudeste 18 Este 0 -- -- 59
2021-02-23 12:00:00 10 8 Sudeste 16 Este 0 -- -- 64
2021-02-23 11:00:00 7.2 9 Este 13 Este 0 -- -- 76
2021-02-23 10:00:00 4.6 8 Este 12 Este 0 -- -- 86
2021-02-23 09:00:00 2.2 9 Este 13 Sudeste 0 -- -- 87
2021-02-23 08:00:00 1.3 10 Sudeste 14 Este 0 -- -- 88
2021-02-23 07:00:00 1.3 12 Sudeste 13 Sudeste 0 -- -- 88
2021-02-23 06:00:00 1.7 9 Sudeste 12 Sudeste 0 -- -- 84
2021-02-23 05:00:00 2.4 5 Sur 9 Sur 0 -- -- 82
2021-02-23 04:00:00 2.8 6 Sudoeste 12 Sudoeste 0 -- -- 80
2021-02-23 03:00:00 2.4 5 Sur 9 Sur 0 -- -- 75
2021-02-23 02:00:00 2.8 7 Sudeste 14 Sudeste 0 -- -- 68
2021-02-23 01:00:00 3.5 8 Sur 13 Sur 0 -- -- 65
2021-02-23 00:00:00 3.9 9 Sudeste 14 Sudeste 0 -- -- 63
2021-02-22 23:00:00 4.4 12 Sudeste 13 Sudeste 0 -- -- 61
2021-02-22 22:00:00 5.5 4 Sudeste 5 Este 0 -- -- 58
2021-02-22 21:00:00 6.2 4 Sudoeste 7 Oeste 0 -- -- 57
2021-02-22 20:00:00 6.6 6 Sudoeste 9 Oeste 0 -- -- 57
2021-02-22 19:00:00 8.6 8 Oeste 22 Sudoeste 0 -- -- 50
2021-02-22 18:00:00 10.4 12 Sudoeste 22 Sudoeste 0 -- -- 48
2021-02-22 17:00:00 10.9 9 Sudoeste 21 Oeste 0 -- -- 56
2021-02-22 16:00:00 10.6 14 Oeste 22 Oeste 0 -- -- 46
2021-02-22 15:00:00 9.8 10 Sudoeste 26 Oeste 0 -- -- 50
2021-02-22 14:00:00 9.1 7 Sudoeste 17 Sudoeste 0 -- -- 56
2021-02-22 13:00:00 7.6 4 Sudoeste 10 Oeste 0 -- -- 62
2021-02-22 12:00:00 6 3 Sudoeste 17 Oeste 0 -- -- 80
2021-02-22 11:00:00 4.1 10 Oeste 17 Oeste 0 -- -- 88
2021-02-22 10:00:00 2.4 13 Oeste 21 Sudoeste 0 -- -- 99
2021-02-22 09:00:00 0.2 12 Oeste 17 Oeste 0 -- -- 100
2021-02-22 08:00:00 -0.1 10 Oeste 19 Oeste 0 -- -- 99
2021-02-22 07:00:00 0.2 15 Oeste 22 Oeste 0 -- -- 99
2021-02-22 06:00:00 0.5 18 Oeste 23 Oeste 0 -- -- 98
2021-02-22 05:00:00 0.8 16 Oeste 19 Oeste 0 -- -- 98
2021-02-22 04:00:00 1.2 17 Oeste 22 Oeste 0 -- -- 98
2021-02-22 03:00:00 1.8 18 Oeste 28 Oeste 0 -- -- 97
2021-02-22 02:00:00 2 21 Oeste 26 Oeste 0 -- -- 96
2021-02-22 01:00:00 2.6 19 Oeste 24 Oeste 0 -- -- 94
2021-02-22 00:00:00 3.3 17 Oeste 23 Oeste 0 -- -- 92
2021-02-21 23:00:00 3.6 12 Oeste 28 Oeste 0 -- -- 88
2021-02-21 22:00:00 4.4 16 Oeste 25 Oeste 0 -- -- 85
2021-02-21 21:00:00 4.7 17 Oeste 24 Oeste 0.2 -- -- 83
2021-02-21 20:00:00 5 12 Oeste 25 Oeste 0.2 -- -- 87
2021-02-21 19:00:00 5.8 17 Oeste 28 Oeste 0 -- -- 83
2021-02-21 18:00:00 6.2 21 Oeste 31 Oeste 0 -- -- 80
2021-02-21 17:00:00 5.8 25 Oeste 36 Oeste 0 -- -- 87
2021-02-21 16:00:00 5.6 24 Oeste 36 Oeste 0 -- -- 90
2021-02-21 15:00:00 5.6 19 Sudoeste 25 Sudoeste 0 -- -- 92
2021-02-21 14:00:00 5.3 12 Sudoeste 17 Sudoeste 0.2 -- -- 92
2021-02-21 13:00:00 5 12 Sudoeste 21 Sudoeste 0.2 -- -- 94
2021-02-21 12:00:00 5.3 20 Sudoeste 29 Oeste 0 -- -- 93
2021-02-21 11:00:00 5.3 26 Oeste 42 Sudoeste 0.6 -- -- 95
2021-02-21 10:00:00 6.6 23 Sudoeste 40 Sur 0.6 -- -- 94
2021-02-21 09:00:00 8.7 20 Sur 50 Sur 0 -- -- 80
2021-02-21 08:00:00 10.1 34 Sur 62 Sur 0 -- -- 67
2021-02-21 07:00:00 10.6 26 Sur 47 Sudeste 0 -- -- 56
2021-02-21 06:00:00 10.7 27 Sur 56 Sudoeste 0 -- -- 50
2021-02-21 05:00:00 9.3 21 Sur 36 Sudeste 0 -- -- 52
2021-02-21 04:00:00 8.5 15 Este 24 Sudeste 0 -- -- 56
2021-02-21 03:00:00 9.1 15 Este 20 Sudeste 0 -- -- 53
2021-02-21 02:00:00 9.3 16 Sudeste 25 Sudeste 0 -- -- 53
2021-02-21 01:00:00 9.3 14 Sudeste 21 Sudeste 0 -- -- 52
2021-02-21 00:00:00 9.2 13 Sudeste 18 Sudeste 0 -- -- 59
2021-02-20 23:00:00 9.3 14 Sudeste 21 Sudeste 0 -- -- 59
2021-02-20 22:00:00 9.2 13 Sudeste 21 Sudeste 0 -- -- 63
2021-02-20 21:00:00 9.5 15 Sudeste 20 Sudeste 0 -- -- 62
2021-02-20 20:00:00 9.7 9 Sur 19 Sur 0 -- -- 67
2021-02-20 19:00:00 9.9 14 Sur 24 Sur 0 -- -- 69
2021-02-20 18:00:00 10.1 22 Sur 38 Sur 0 -- -- 69
2021-02-20 17:00:00 9.5 15 Sudoeste 32 Sudoeste 0 -- -- 82
2021-02-20 16:00:00 9 27 Sudoeste 55 Sur 2 -- -- 84
2021-02-20 15:00:00 10.5 28 Sur 46 Sur 0 -- -- 77
2021-02-20 14:00:00 10.5 40 Sur 59 Sur 0 -- -- 72
2021-02-20 13:00:00 10 39 Sudoeste 69 Sudoeste 0 -- -- 75
2021-02-20 12:00:00 9.8 36 Sur 67 Sur 0 -- -- 72
2021-02-20 11:00:00 9.8 41 Sur 62 Sudoeste 0 -- -- 74
2021-02-20 10:00:00 8.3 42 Sur 56 Sur 0 -- -- 78
2021-02-20 09:00:00 6.9 36 Sur 50 Sur 0 -- -- 84
2021-02-20 08:00:00 5.8 11 Sudeste 33 Sur 0 -- -- 86
2021-02-20 07:00:00 6 16 Sur 26 Sur 0 -- -- 87
2021-02-20 06:00:00 6.6 15 Sur 22 Sudoeste 0 -- -- 87
2021-02-20 05:00:00 6.9 16 Sudoeste 33 Sudoeste 0 -- -- 90
2021-02-20 04:00:00 7.5 22 Sudoeste 38 Sudoeste 0 -- -- 86
2021-02-20 03:00:00 7.7 24 Sudoeste 37 Sudoeste 0 -- -- 87
2021-02-20 02:00:00 8.1 22 Sudoeste 45 Sudoeste 0 -- -- 86
2021-02-20 01:00:00 8.3 31 Sur 55 Sur 0 -- -- 85
2021-02-20 00:00:00 8.2 26 Sur 41 Sur 0 -- -- 85
2021-02-19 23:00:00 8.8 30 Sur 41 Sur 0 -- -- 82
2021-02-19 22:00:00 8.7 23 Sur 39 Sur 0 -- -- 81
2021-02-19 21:00:00 9.2 30 Sudoeste 48 Sudoeste 0 -- -- 77
2021-02-19 20:00:00 9.5 27 Sudoeste 48 Sur 0 -- -- 73
2021-02-19 19:00:00 10.2 23 Sur 41 Sur 0 -- -- 71
2021-02-19 18:00:00 10.7 28 Sudoeste 44 Sur 0 -- -- 63
2021-02-19 17:00:00 11.1 28 Sudoeste 40 Sudoeste 0 -- -- 65
2021-02-19 16:00:00 11.3 24 Sudoeste 50 Sudoeste 0 -- -- 66
2021-02-19 15:00:00 11.5 35 Sudoeste 52 Sudoeste 0 -- -- 64
2021-02-19 14:00:00 12.2 40 Sudoeste 56 Sudoeste 0 -- -- 61
2021-02-19 13:00:00 11.5 36 Sudoeste 52 Sudoeste 0 -- -- 63
2021-02-19 12:00:00 11 28 Sudoeste 39 Sudoeste 0 -- -- 71
2021-02-19 11:00:00 9.2 24 Sudoeste 40 Sudoeste 0.2 -- -- 74
2021-02-19 10:00:00 7.7 28 Sudoeste 36 Sur 0 -- -- 88
2021-02-19 09:00:00 7.2 23 Sudoeste 40 Sudoeste 0 -- -- 94
2021-02-19 08:00:00 7.5 28 Sudoeste 48 Sudoeste 0 -- -- 92
2021-02-19 07:00:00 7.8 31 Sudoeste 45 Sudoeste 0.2 -- -- 95
2021-02-19 06:00:00 7.7 15 Sudoeste 29 Sudoeste 0 -- -- 99
2021-02-19 05:00:00 8 23 Sudoeste 34 Sur 0.2 -- -- 98
2021-02-19 04:00:00 8.3 17 Sudoeste 22 Sudoeste 0.4 -- -- 100
2021-02-19 03:00:00 8 13 Sudoeste 21 Sudoeste 2 -- -- 99
2021-02-19 02:00:00 8 15 Sudoeste 21 Sudoeste 0.2 -- -- 99
2021-02-19 01:00:00 8 15 Sudoeste 26 Sudoeste 0.2 -- -- 98
2021-02-19 00:00:00 8.2 20 Sudoeste 28 Sudoeste 0 -- -- 96
2021-02-18 23:00:00 8.3 22 Sudoeste 28 Sudoeste 0 -- -- 96
2021-02-18 22:00:00 8.5 16 Sudoeste 28 Sudoeste 0 -- -- 95
2021-02-18 21:00:00 8.7 21 Sudoeste 31 Sudoeste 0 -- -- 93
2021-02-18 20:00:00 8.8 18 Sudoeste 27 Sudoeste 0 -- -- 94
2021-02-18 19:00:00 9 21 Sudoeste 32 Sudoeste 0 -- -- 95
2021-02-18 18:00:00 9.2 26 Sudoeste 37 Sudoeste 0.2 -- -- 95
2021-02-18 17:00:00 9.4 26 Sudoeste 55 Sudoeste 0 -- -- 94
2021-02-18 16:00:00 11.1 42 Sudoeste 60 Sudoeste 0 -- -- 81
2021-02-18 15:00:00 9.6 36 Sudoeste 55 Sudoeste 0.2 -- -- 91
2021-02-18 14:00:00 10.9 38 Sudoeste 66 Sudoeste 0 -- -- 80
2021-02-18 13:00:00 9.9 40 Sudoeste 55 Sudoeste 0 -- -- 81
2021-02-18 12:00:00 8.9 25 Sudoeste 50 Sudoeste 0 -- -- 89
2021-02-18 11:00:00 8.6 30 Sudoeste 49 Sudoeste 0.2 -- -- 90
2021-02-18 10:00:00 7.8 32 Sudoeste 46 Sudoeste 0 -- -- 92
2021-02-18 09:00:00 7.2 30 Sudoeste 39 Sudoeste 0 -- -- 92
2021-02-18 08:00:00 6.9 19 Sudoeste 39 Sudoeste 0 -- -- 93
2021-02-18 07:00:00 6.9 30 Sudoeste 44 Sudoeste 0 -- -- 94
2021-02-18 06:00:00 7.2 33 Sudoeste 47 Sudoeste 0 -- -- 94
2021-02-18 05:00:00 7.4 35 Sudoeste 45 Sudoeste 0 -- -- 94
2021-02-18 04:00:00 8 30 Sudoeste 46 Sudoeste 0 -- -- 93
2021-02-18 03:00:00 8.5 25 Sudoeste 34 Sudoeste 0 -- -- 94
2021-02-18 02:00:00 8.6 26 Sudoeste 35 Sudoeste 0 -- -- 94
2021-02-18 01:00:00 8.9 22 Sudoeste 33 Sudoeste 0 -- -- 92
2021-02-18 00:00:00 9 21 Sudoeste 33 Sudoeste 0 -- -- 91
2021-02-17 23:00:00 9.4 21 Sudoeste 30 Sudoeste 0 -- -- 88
2021-02-17 22:00:00 9.9 22 Sudoeste 36 Sudoeste 0 -- -- 85
2021-02-17 21:00:00 9.8 26 Sudoeste 37 Sudoeste 0 -- -- 86
2021-02-17 20:00:00 10.2 17 Sudoeste 24 Sur 0 -- -- 86
2021-02-17 19:00:00 10.4 19 Sudoeste 24 Sudoeste 0 -- -- 86
2021-02-17 18:00:00 10.9 14 Sur 24 Sur 0 -- -- 88
2021-02-17 17:00:00 10.6 14 Sudoeste 26 Oeste 0.8 -- -- 93
2021-02-17 16:00:00 11.1 16 Sudoeste 39 Sudoeste 0.2 -- -- 87
2021-02-17 15:00:00 11.8 23 Sudoeste 37 Sudoeste 0 -- -- 84
2021-02-17 14:00:00 11.4 25 Sudoeste 37 Sudoeste 0 -- -- 85
2021-02-17 13:00:00 10.7 26 Sudoeste 36 Sudoeste 0 -- -- 89
2021-02-17 12:00:00 9.8 21 Sudoeste 30 Sudoeste 0 -- -- 96
2021-02-17 11:00:00 9.1 20 Sudoeste 29 Sudoeste 0 -- -- 99
2021-02-17 10:00:00 8.5 12 Sudoeste 17 Sudoeste 0 -- -- 100
2021-02-17 09:00:00 7.8 9 Sudoeste 18 Sudoeste 0 -- -- 100
2021-02-17 08:00:00 7.6 10 Sudoeste 15 Sudoeste 0 -- -- 100
2021-02-17 07:00:00 7.4 8 Sudoeste 15 Sudoeste 0 -- -- 100
2021-02-17 06:00:00 7.7 13 Sudoeste 19 Sudoeste 0 -- -- 100
2021-02-17 05:00:00 7.9 9 Sudoeste 16 Sudoeste 0 -- -- 100
2021-02-17 04:00:00 8 8 Sudoeste 13 Sudoeste 0 -- -- 100
2021-02-17 03:00:00 7.5 8 Sudoeste 12 Sudoeste 0 -- -- 100
2021-02-17 02:00:00 6.9 6 Sudoeste 10 Sudoeste 0.2 -- -- 99
2021-02-17 01:00:00 7.5 8 Oeste 12 Oeste 0 -- -- 98
2021-02-17 00:00:00 8 10 Oeste 19 Oeste 1.4 -- -- 97
2021-02-16 23:00:00 8.7 8 Sudoeste 14 Sudoeste 1.8 -- -- 99
2021-02-16 22:00:00 8.7 12 Sudoeste 17 Sudoeste 0.4 -- -- 99
2021-02-16 21:00:00 8.7 10 Sudoeste 21 Sudoeste 0.2 -- -- 99
2021-02-16 20:00:00 8.7 12 Sudoeste 24 Sudoeste 0 -- -- 98
2021-02-16 19:00:00 8.7 21 Sudoeste 29 Sudoeste 0.4 -- -- 97
2021-02-16 18:00:00 8.9 25 Sudoeste 33 Sudoeste 0.4 -- -- 97
2021-02-16 17:00:00 9.2 21 Oeste 41 Sudoeste 0.6 -- -- 96
2021-02-16 16:00:00 10 34 Sudoeste 46 Sudoeste 0 -- -- 87
2021-02-16 15:00:00 10.6 31 Sudoeste 49 Sudoeste 0 -- -- 82
2021-02-16 14:00:00 10.8 34 Sudoeste 51 Sudoeste 0 -- -- 80
2021-02-16 13:00:00 10.4 32 Sudoeste 56 Sudoeste 0 -- -- 80
2021-02-16 12:00:00 10 35 Sudoeste 53 Sudoeste 0 -- -- 79
2021-02-16 11:00:00 9.6 33 Sudoeste 47 Sudoeste 0 -- -- 79
2021-02-16 10:00:00 8.3 30 Sudoeste 40 Sudoeste 0 -- -- 84
2021-02-16 09:00:00 7.4 29 Sudoeste 40 Sudoeste 0 -- -- 86
2021-02-16 08:00:00 6.6 23 Sudoeste 39 Sudoeste 0 -- -- 87
2021-02-16 07:00:00 6.8 20 Sudoeste 30 Sudoeste 0 -- -- 83
2021-02-16 06:00:00 7 13 Oeste 22 Sudoeste 0 -- -- 81
2021-02-16 05:00:00 7.3 18 Oeste 27 Sudoeste 0 -- -- 81
2021-02-16 04:00:00 7.1 14 Sudoeste 28 Sudoeste 0 -- -- 83
2021-02-16 03:00:00 8.1 13 Sudoeste 21 Sudoeste 0 -- -- 79
2021-02-16 02:00:00 7.7 9 Sudoeste 13 Oeste 0 -- -- 80
2021-02-16 01:00:00 7.8 10 Oeste 16 Sudoeste 0 -- -- 79
2021-02-16 00:00:00 7.7 16 Oeste 22 Oeste 0 -- -- 80
2021-02-15 23:00:00 8 13 Sudoeste 17 Sudoeste 0 -- -- 76
2021-02-15 22:00:00 8.7 16 Sudoeste 18 Sudoeste 0 -- -- 75
2021-02-15 21:00:00 9.5 12 Sudoeste 16 Sudoeste 0 -- -- 74
2021-02-15 20:00:00 10.6 10 Sudoeste 15 Sudoeste 0 -- -- 72
2021-02-15 19:00:00 12.4 11 Sudoeste 15 Sudoeste 0 -- -- 70
2021-02-15 18:00:00 15 13 Sur 21 Sur 0 -- -- 61
2021-02-15 17:00:00 15.9 14 Sudoeste 23 Sudoeste 0 -- -- 57
2021-02-15 16:00:00 15.9 11 Sudoeste 23 Sudoeste 0 -- -- 54
2021-02-15 15:00:00 14.7 8 Sudoeste 16 Sur 0 -- -- 64
2021-02-15 14:00:00 14.1 9 Sudeste 15 Sudeste 0 -- -- 61
2021-02-15 13:00:00 12.9 8 Sudeste 13 Nordeste 0 -- -- 70
2021-02-15 12:00:00 11 7 Nordeste 12 Nordeste 0 -- -- 77
2021-02-15 11:00:00 8.1 8 Este 13 Este 0 -- -- 87
2021-02-15 10:00:00 5.9 8 Este 13 Este 0 -- -- 91
2021-02-15 09:00:00 4.9 6 Este 10 Este 0 -- -- 93
2021-02-15 08:00:00 4.1 8 Este 9 Este 0 -- -- 95
2021-02-15 07:00:00 3.9 8 Este 10 Este 0 -- -- 93
2021-02-15 06:00:00 5.8 8 Este 9 Este 0 -- -- 89
2021-02-15 05:00:00 5.9 5 Este 9 Sudeste 0 -- -- 90
2021-02-15 04:00:00 5.9 6 Sudeste 9 Sur 0 -- -- 88
2021-02-15 03:00:00 6.8 4 Sur 18 Sudoeste 0 -- -- 87
2021-02-15 02:00:00 7.2 10 Sudoeste 19 Sudoeste 0 -- -- 86
2021-02-15 01:00:00 6.9 11 Sudoeste 19 Sudoeste 0 -- -- 88
2021-02-15 00:00:00 7.3 11 Sudoeste 17 Sudoeste 0 -- -- 85
2021-02-14 23:00:00 7.9 12 Sudoeste 16 Sudoeste 0 -- -- 82
2021-02-14 22:00:00 8.6 17 Sudoeste 24 Sudoeste 0 -- -- 80
2021-02-14 21:00:00 10.4 22 Sudoeste 28 Sudoeste 0 -- -- 73
2021-02-14 20:00:00 10.7 14 Sudoeste 19 Sur 0 -- -- 75
2021-02-14 19:00:00 12.3 14 Sudoeste 25 Sur 0 -- -- 68
2021-02-14 18:00:00 14 15 Sudoeste 27 Sur 0 -- -- 66
2021-02-14 17:00:00 15.7 19 Sur 28 Sudoeste 0 -- -- 59
2021-02-14 16:00:00 15.7 19 Sudoeste 27 Sur 0 -- -- 62
2021-02-14 15:00:00 14.3 8 Sudeste 17 Sudeste 0 -- -- 75
2021-02-14 14:00:00 12.3 6 Este 14 Este 0 -- -- 81
2021-02-14 13:00:00 10.2 8 Este 13 Sudeste 0 -- -- 87
2021-02-14 12:00:00 7.6 12 Sudeste 16 Este 0 -- -- 93
2021-02-14 11:00:00 7 8 Este 14 Este 0 -- -- 98
2021-02-14 10:00:00 4.5 8 Nordeste 12 Este 0 -- -- 100
2021-02-14 09:00:00 3.6 8 Este 12 Este 0 -- -- 99
2021-02-14 08:00:00 4.1 7 Este 10 Sudeste 0 -- -- 98
2021-02-14 07:00:00 4.9 6 Este 8 Este 0 -- -- 99
2021-02-14 06:00:00 5.7 2 Este 5 Este 0 -- -- 98
2021-02-14 05:00:00 5.8 0 Calma 5 Este 0 -- -- 97
2021-02-14 04:00:00 6.4 2 Oeste 4 Sur 0 -- -- 97
2021-02-14 03:00:00 6.9 3 Sur 6 Sudoeste 0 -- -- 93
2021-02-14 02:00:00 7 3 Sudoeste 4 Sudoeste 0 -- -- 96
2021-02-14 01:00:00 6.5 2 Sudoeste 5 Sudeste 0 -- -- 95
2021-02-14 00:00:00 7.4 7 Oeste 9 Oeste 0 -- -- 92
2021-02-13 23:00:00 7.7 6 Oeste -- -- 0 -- -- 91
2021-02-13 22:00:00 7.9 8 Oeste 9 Oeste 0 -- -- 91
2021-02-13 21:00:00 8.2 5 Sudoeste 11 Sudoeste 0 -- -- 89
2021-02-13 20:00:00 8.4 11 Oeste 16 Sudoeste 0 -- -- 89
2021-02-13 19:00:00 9.7 11 Oeste 26 Sudoeste 0 -- -- 85
2021-02-13 18:00:00 11.8 17 Sudoeste 25 Sudoeste 0 -- -- 78
2021-02-13 17:00:00 12 18 Oeste 28 Oeste 0 -- -- 79
2021-02-13 16:00:00 12.2 20 Oeste 28 Oeste 0 -- -- 75
2021-02-13 15:00:00 11.7 16 Oeste 31 Sudoeste 0 -- -- 76
2021-02-13 14:00:00 11.2 22 Sudoeste 29 Oeste 0 -- -- 77
2021-02-13 13:00:00 10.1 15 Oeste 26 Sudoeste 0 -- -- 80
2021-02-13 08:00:00 -- -- -- -- -- -- -- -- --
2021-02-13 07:00:00 5.1 17 Sudoeste 22 Sudoeste 0 -- -- 98
2021-02-13 06:00:00 4.2 3 Sur 9 Oeste 0 -- -- 98
2021-02-13 05:00:00 4.3 10 Oeste 17 Oeste 0 -- -- 96
2021-02-13 04:00:00 4.9 13 Oeste 15 Oeste 0 -- -- 95
2021-02-13 03:00:00 5.3 10 Oeste 14 Sudoeste 0 -- -- 94
2021-02-13 02:00:00 5.6 3 Oeste 15 Oeste 0 -- -- 93
2021-02-13 01:00:00 6.1 13 Sudoeste 19 Sudoeste 0 -- -- 91
2021-02-13 00:00:00 6.5 10 Oeste 16 Oeste 0 -- -- 89
2021-02-12 23:00:00 6.9 6 Oeste 10 Oeste 0 -- -- 88
2021-02-12 22:00:00 7.5 6 Sur 33 Sudoeste 0 -- -- 85
2021-02-12 21:00:00 7.4 12 Sudoeste 15 Sudoeste 0 -- -- 86
2021-02-12 20:00:00 8.4 12 Sudoeste 20 Sudoeste 0 -- -- 81
2021-02-12 19:00:00 8.9 12 Oeste 23 Oeste 0 -- -- 79
2021-02-12 18:00:00 10.8 18 Oeste 36 Oeste 0 -- -- 72
2021-02-12 17:00:00 12.1 28 Oeste 37 Oeste 0 -- -- 69
2021-02-12 16:00:00 11.8 19 Oeste 36 Oeste 0 -- -- 66
2021-02-12 15:00:00 10.9 23 Oeste 37 Oeste 0 -- -- 70
2021-02-12 14:00:00 10.6 24 Oeste 40 Oeste 0 -- -- 77
2021-02-12 13:00:00 10 25 Oeste 41 Oeste 0 -- -- 82
2021-02-12 12:00:00 9.2 29 Oeste 37 Oeste 0 -- -- 89
2021-02-12 11:00:00 7.7 21 Oeste 49 Oeste 0 -- -- 93
2021-02-12 10:00:00 7.5 30 Oeste 38 Oeste 0 -- -- 93
2021-02-12 09:00:00 6.5 30 Oeste 44 Oeste 0 -- -- 97
2021-02-12 08:00:00 6.9 35 Oeste 44 Sudoeste 0 -- -- 95
2021-02-12 07:00:00 7 30 Oeste 45 Sudoeste 0 -- -- 97
2021-02-12 06:00:00 7.5 31 Oeste 45 Oeste 0 -- -- 96
2021-02-12 05:00:00 8.2 34 Oeste 53 Sudoeste 2.2 -- -- 97
2021-02-12 04:00:00 8.7 33 Oeste 50 Oeste 1.6 -- -- 96
2021-02-12 03:00:00 9.2 29 Oeste 47 Sudoeste 3 -- -- 97
2021-02-12 02:00:00 9.6 22 Sudoeste 36 Sudoeste 3.2 -- -- 99
2021-02-12 01:00:00 10 25 Sudoeste 56 Sudoeste 2.2 -- -- 98
2021-02-12 00:00:00 10.2 33 Sudoeste 45 Sudoeste 2.2 -- -- 97
2021-02-11 23:00:00 10.5 28 Sudoeste 39 Sudoeste 0 -- -- 94
2021-02-11 22:00:00 10.6 25 Sudoeste 41 Sudoeste 0 -- -- 93
2021-02-11 21:00:00 10.7 24 Sudoeste 40 Sudoeste 0 -- -- 93
2021-02-11 20:00:00 11.5 28 Sudoeste 41 Sudoeste 0 -- -- 89
2021-02-11 19:00:00 12.1 27 Sudoeste 38 Sudoeste 0 -- -- 85
2021-02-11 18:00:00 12.7 24 Sudoeste 43 Sudoeste 0 -- -- 79
2021-02-11 17:00:00 13 28 Sudoeste 41 Sudoeste 0 -- -- 79
2021-02-11 16:00:00 13.6 28 Sudoeste 38 Sudoeste 0 -- -- 79
2021-02-11 15:00:00 13 26 Sudoeste 37 Sudoeste 0 -- -- 85
2021-02-11 14:00:00 12 22 Sudoeste 32 Sudoeste 0 -- -- 94
2021-02-11 13:00:00 11.2 23 Sudoeste 33 Sudoeste 0 -- -- 100
2021-02-11 12:00:00 10.5 23 Sudoeste 28 Sudoeste 0.2 -- -- 100
2021-02-11 11:00:00 10.2 19 Sudoeste 26 Sudoeste 0.4 -- -- 100
2021-02-11 10:00:00 9.8 15 Sudoeste 20 Sudoeste 0.4 -- -- 100
2021-02-11 09:00:00 9.4 15 Sudoeste 25 Sudoeste 0.2 -- -- 100
2021-02-11 08:00:00 9.3 18 Sudoeste 28 Sudoeste 0 -- -- 100
2021-02-11 07:00:00 8.9 21 Sudoeste 32 Sudoeste 0 -- -- 100
2021-02-11 06:00:00 8.7 24 Sudoeste 33 Sudoeste 0 -- -- 100
2021-02-11 05:00:00 8.3 20 Sudoeste 30 Sudoeste 0 -- -- 100
2021-02-11 04:00:00 8.2 23 Sudoeste 29 Sudoeste 0.2 -- -- 100
2021-02-11 03:00:00 7.3 12 Sudoeste 20 Sudoeste 0 -- -- 100
2021-02-11 02:00:00 6.1 8 Sudoeste 21 Sudoeste 0 -- -- 99
2021-02-11 01:00:00 5.9 7 Sudoeste 15 Oeste 0.2 -- -- 99
2021-02-11 00:00:00 5.9 12 Sudoeste 27 Sudoeste 0.2 -- -- 97
2021-02-10 23:00:00 6.3 15 Sudoeste 20 Sudoeste 0 -- -- 86
2021-02-10 22:00:00 7 21 Sudoeste 31 Sudoeste 0 -- -- 85
2021-02-10 21:00:00 7.4 16 Sudoeste 21 Sudoeste 0 -- -- 86
2021-02-10 20:00:00 7.3 7 Sudoeste 12 Oeste 0 -- -- 82
2021-02-10 19:00:00 7.5 8 Sudoeste 16 Sudoeste 0 -- -- 78
2021-02-10 18:00:00 8.4 13 Sudoeste 28 Sudoeste 0 -- -- 73
2021-02-10 17:00:00 8.9 24 Sudoeste 33 Sudoeste 0 -- -- 67
2021-02-10 16:00:00 9.5 26 Sudoeste 37 Oeste 0 -- -- 71
2021-02-10 15:00:00 9.6 31 Sudoeste 38 Oeste 0 -- -- 67
2021-02-10 14:00:00 8.8 31 Sudoeste 42 Oeste 0 -- -- 72
2021-02-10 13:00:00 7.7 35 Oeste 44 Oeste 0 -- -- 76
2021-02-10 12:00:00 6.6 35 Sudoeste 53 Oeste 0 -- -- 85
2021-02-10 11:00:00 5.7 39 Oeste 50 Oeste 0 -- -- 91
2021-02-10 10:00:00 4.5 26 Oeste 41 Oeste 0 -- -- 95
2021-02-10 09:00:00 3.7 28 Oeste 45 Oeste 0 -- -- 97
2021-02-10 08:00:00 4.1 32 Oeste 46 Sudoeste 0 -- -- 99
2021-02-10 07:00:00 4 28 Oeste 45 Sudoeste 0 -- -- 100
2021-02-10 06:00:00 4.1 33 Sudoeste 44 Oeste 0.2 -- -- 99
2021-02-10 05:00:00 4.5 32 Oeste 46 Oeste 0.6 -- -- 97
2021-02-10 04:00:00 4.5 25 Oeste 38 Sudoeste 0 -- -- 99
2021-02-10 03:00:00 4.5 26 Oeste 60 Oeste 1.2 -- -- 98
2021-02-10 02:00:00 4.4 50 Sudoeste 75 Sudoeste 3 -- -- 98
2021-02-10 01:00:00 4.1 35 Sudoeste 58 Sudoeste 2.2 -- -- 98
2021-02-10 00:00:00 4.5 29 Sudoeste 47 Sudoeste 1.4 -- -- 99
2021-02-09 23:00:00 4.3 18 Sudoeste 44 Oeste 1.8 -- -- 99
2021-02-09 22:00:00 4.3 27 Sudoeste 38 Sudoeste 0.4 -- -- 100
2021-02-09 21:00:00 4.1 30 Sudoeste 51 Oeste 1 -- -- 98
2021-02-09 20:00:00 4.2 26 Sudoeste 51 Sudoeste 0.4 -- -- 98
2021-02-09 19:00:00 4 23 Sudoeste 44 Sudoeste 1.2 -- -- 100
2021-02-09 18:00:00 3.6 13 Sudoeste 26 Oeste 0 -- -- 99
2021-02-09 17:00:00 3.1 22 Oeste 39 Oeste 0.8 -- -- 99
2021-02-09 16:00:00 2.6 35 Oeste 45 Oeste 3.6 -- -- 97
2021-02-09 15:00:00 4.4 37 Oeste 51 Oeste 0.2 -- -- 95
2021-02-09 14:00:00 4.3 24 Sudoeste 34 Sudoeste 0 -- -- 98
2021-02-09 13:00:00 3.1 14 Sudoeste 45 Oeste 2.4 -- -- 99
2021-02-09 12:00:00 4.2 30 Oeste 75 Sudoeste 4.4 -- -- 97
2021-02-09 11:00:00 5.9 44 Sudoeste 69 Sudoeste 4.6 -- -- 97
2021-02-09 10:00:00 6.4 44 Sudoeste 66 Sudoeste 2.6 -- -- 96
2021-02-09 09:00:00 6.5 45 Sudoeste 78 Sudoeste 2.2 -- -- 96
2021-02-09 08:00:00 6.5 43 Sudoeste 66 Sudoeste 0.8 -- -- 96
2021-02-09 07:00:00 6.3 38 Sudoeste 63 Sudoeste 1 -- -- 97
2021-02-09 06:00:00 6.1 35 Sudoeste 65 Sudoeste 0.6 -- -- 98
2021-02-09 05:00:00 5.7 38 Sudoeste 56 Sudoeste 0.2 -- -- 99
2021-02-09 04:00:00 5 33 Sudoeste 48 Sudoeste 0.8 -- -- 99
2021-02-09 03:00:00 4.6 27 Sudoeste 41 Sudoeste 0.8 -- -- 98
2021-02-09 02:00:00 4.7 23 Sudoeste 40 Sudoeste 1.4 -- -- 99
2021-02-09 01:00:00 4.9 28 Sudoeste 42 Sudoeste 0.4 -- -- 98
2021-02-09 00:00:00 5.2 23 Sudoeste 40 Sudoeste 0 -- -- 99
2021-02-08 23:00:00 5.2 30 Sudoeste 45 Sudoeste 0.2 -- -- 97
2021-02-08 22:00:00 5.5 29 Sudoeste 43 Sudoeste 0 -- -- 98
2021-02-08 21:00:00 5.8 27 Sudoeste 42 Sudoeste 0.4 -- -- 99
2021-02-08 20:00:00 6.1 27 Oeste 42 Sudoeste 0 -- -- 97
2021-02-08 19:00:00 6.3 28 Sudoeste 43 Sudoeste 1 -- -- 98
2021-02-08 18:00:00 6.2 22 Oeste 41 Sudoeste 0.6 -- -- 99
2021-02-08 17:00:00 6.1 29 Sudoeste 42 Oeste 0 -- -- 97
2021-02-08 16:00:00 5.5 24 Oeste 41 Oeste 0.6 -- -- 97
2021-02-08 15:00:00 4.6 31 Oeste 55 Oeste 3.8 -- -- 97
2021-02-08 14:00:00 5.1 33 Oeste 56 Oeste 1.4 -- -- 97
2021-02-08 13:00:00 6.1 33 Sudoeste 55 Sudoeste 0.6 -- -- 96
2021-02-08 12:00:00 5.7 30 Sudoeste 48 Oeste 0.2 -- -- 96
2021-02-08 11:00:00 5.1 29 Sudoeste 42 Sudoeste 0 -- -- 99
2021-02-08 10:00:00 4.6 29 Sudoeste 39 Sudoeste 0 -- -- 99
2021-02-08 09:00:00 3.9 25 Sudoeste 42 Sudoeste 0 -- -- 100
2021-02-08 08:00:00 4.1 35 Sudoeste 46 Sudoeste 0.6 -- -- 97
2021-02-08 07:00:00 4.3 20 Sudoeste 37 Sudoeste 0 -- -- 98
2021-02-08 06:00:00 4.7 26 Sudoeste 33 Sudoeste 0 -- -- 97
2021-02-08 05:00:00 5.1 26 Sudoeste 43 Sudoeste 0 -- -- 97
2021-02-08 04:00:00 5.7 31 Sudoeste 42 Oeste 0 -- -- 98
2021-02-08 03:00:00 5.7 26 Sudoeste 59 Sudoeste 0.2 -- -- 99
2021-02-08 02:00:00 6.3 37 Sudoeste 53 Sudoeste 2.4 -- -- 97
2021-02-08 01:00:00 5.9 24 Sudoeste 49 Sudoeste 1.6 -- -- 99
2021-02-08 00:00:00 6 36 Sudoeste 50 Sudoeste 0.8 -- -- 98
2021-02-07 23:00:00 5.5 32 Sudoeste 46 Sudoeste 0.8 -- -- 99
2021-02-07 22:00:00 4.9 19 Sudoeste 37 Sudoeste 0.2 -- -- 99
2021-02-07 21:00:00 4.7 24 Sudoeste 38 Sudoeste 0.2 -- -- 99
2021-02-07 20:00:00 4.2 22 Sudoeste 34 Sudoeste 0.2 -- -- 100
2021-02-07 19:00:00 3.6 25 Sudoeste 39 Sudoeste 0 -- -- 99
2021-02-07 18:00:00 3.4 28 Sudoeste 42 Sudoeste 0 -- -- 99
2021-02-07 17:00:00 3.6 28 Sudoeste 38 Oeste 0 -- -- 97
2021-02-07 16:00:00 3.3 32 Sudoeste 40 Sudoeste 0.2 -- -- 96
2021-02-07 15:00:00 3.5 29 Sudoeste 40 Sudoeste 0.4 -- -- 93
2021-02-07 14:00:00 3.4 24 Oeste 33 Oeste 0 -- -- 91
2021-02-07 13:00:00 4.2 26 Sudoeste 35 Oeste 0 -- -- 82
2021-02-07 12:00:00 3.8 20 Oeste 27 Oeste 0 -- -- 89
2021-02-07 11:00:00 2.9 14 Sudoeste 21 Sudoeste 0 -- -- 96
2021-02-07 10:00:00 2.3 14 Sudoeste 19 Sudoeste 0.2 -- -- 98
2021-02-07 09:00:00 1 12 Oeste 17 Oeste 0 -- -- 98
2021-02-07 08:00:00 1.5 8 Oeste 10 Sudoeste 0 -- -- 95
2021-02-07 07:00:00 1.9 3 Oeste 6 Oeste 0 -- -- 94
2021-02-07 06:00:00 2 3 Oeste 6 Noroeste 0 -- -- 91
2021-02-07 05:00:00 1.9 5 Oeste 8 Oeste 0 -- -- 89
2021-02-07 04:00:00 2 0 Calma 6 Este 0 -- -- 88
2021-02-07 03:00:00 2.5 4 Este 6 Este 0 -- -- 87
2021-02-07 02:00:00 2.6 2 Sudeste 14 Nordeste 0 -- -- 86
2021-02-07 01:00:00 3.2 9 Nordeste 18 Nordeste 0 -- -- 83
2021-02-07 00:00:00 3.8 6 Nordeste 18 Nordeste 0 -- -- 86
2021-02-06 23:00:00 4.5 10 Nordeste 19 Nordeste 0 -- -- 86
2021-02-06 22:00:00 5 6 Nordeste 10 Este 0 -- -- 95
2021-02-06 21:00:00 5.4 6 Norte 10 Nordeste 0 -- -- 91
2021-02-06 20:00:00 5.1 3 Nordeste 10 Nordeste 0 -- -- 93
2021-02-06 19:00:00 5.3 8 Nordeste 20 Norte 0 -- -- 93
2021-02-06 18:00:00 6.3 15 Nordeste 23 Norte 0.2 -- -- 88
2021-02-06 17:00:00 6.6 12 Nordeste 27 Nordeste 0 -- -- 87
2021-02-06 16:00:00 6.5 21 Nordeste 39 Nordeste 0 -- -- 87
2021-02-06 15:00:00 6.1 26 Nordeste 39 Nordeste 0 -- -- 89
2021-02-06 14:00:00 6.1 23 Nordeste 43 Nordeste 0 -- -- 88
2021-02-06 13:00:00 6.2 27 Nordeste 40 Nordeste 0 -- -- 90
2021-02-06 12:00:00 5.8 22 Nordeste 42 Nordeste 0 -- -- 96
2021-02-06 11:00:00 5 30 Nordeste 46 Nordeste 0 -- -- 98
2021-02-06 10:00:00 4.9 27 Nordeste 41 Nordeste 0.2 -- -- 100
2021-02-06 09:00:00 5.1 19 Nordeste 28 Nordeste 0 -- -- 99
2021-02-06 08:00:00 5.1 11 Norte 19 Norte 0.2 -- -- 99
2021-02-06 07:00:00 5.2 12 Nordeste 22 Nordeste 0.4 -- -- 99
2021-02-06 06:00:00 5.5 12 Nordeste 21 Nordeste 2 -- -- 99
2021-02-06 05:00:00 6.3 10 Nordeste 14 Nordeste 2 -- -- 100
2021-02-06 04:00:00 6.9 3 Sudeste 9 Sur 0.4 -- -- 100
2021-02-06 03:00:00 7.2 8 Sudeste 17 Este 0.2 -- -- 100
2021-02-06 02:00:00 7.3 11 Este 23 Nordeste 0.8 -- -- 100
2021-02-06 01:00:00 7.4 17 Nordeste 29 Nordeste 1.2 -- -- 100
2021-02-06 00:00:00 7.7 13 Este 31 Nordeste 3 -- -- 99
2021-02-05 23:00:00 7.6 18 Norte 24 Nordeste 0 -- -- 100
2021-02-05 22:00:00 7.2 11 Norte 19 Norte 0.6 -- -- 100
2021-02-05 21:00:00 7.1 9 Norte 14 Noroeste 1.4 -- -- 100
2021-02-05 20:00:00 7.1 10 Noroeste 17 Oeste 3.2 -- -- 99
2021-02-05 19:00:00 7.4 6 Noroeste 12 Norte 2 -- -- 98
2021-02-05 18:00:00 7.6 10 Norte 21 Nordeste 0 -- -- 97
2021-02-05 17:00:00 7.9 14 Nordeste 21 Nordeste 0 -- -- 96
2021-02-05 16:00:00 8.5 9 Nordeste 12 Nordeste 0 -- -- 95
2021-02-05 15:00:00 8.6 7 Nordeste 16 Nordeste 0 -- -- 95
2021-02-05 14:00:00 7.6 11 Nordeste 26 Nordeste 0 -- -- 99
2021-02-05 13:00:00 6.8 17 Nordeste 24 Nordeste 0.2 -- -- 99
2021-02-05 12:00:00 6.6 17 Nordeste 27 Nordeste 0 -- -- 100
2021-02-05 11:00:00 5.9 17 Nordeste 29 Nordeste 0 -- -- 99
2021-02-05 10:00:00 5.5 17 Nordeste 32 Nordeste 0.4 -- -- 99
2021-02-05 09:00:00 5.3 16 Nordeste 32 Nordeste 0.4 -- -- 100
2021-02-05 08:00:00 5.1 19 Nordeste 30 Nordeste 1 -- -- 100
2021-02-05 07:00:00 5 13 Nordeste 18 Norte 2.2 -- -- 100
2021-02-05 06:00:00 5 14 Nordeste 27 Nordeste 0.4 -- -- 100
2021-02-05 05:00:00 4.9 16 Nordeste 26 Nordeste 0 -- -- 100
2021-02-05 04:00:00 5 14 Nordeste 26 Nordeste 0.6 -- -- 100
2021-02-05 03:00:00 5 17 Nordeste 26 Nordeste 0 -- -- 100
2021-02-05 02:00:00 5.1 9 Nordeste 15 Nordeste 0.4 -- -- 100
2021-02-05 01:00:00 5 9 Nordeste 18 Nordeste 0 -- -- 100
2021-02-05 00:00:00 4.9 13 Nordeste 17 Nordeste 0 -- -- 100
2021-02-04 23:00:00 5 7 Nordeste 13 Nordeste 0 -- -- 100
2021-02-04 22:00:00 4.9 7 Nordeste 12 Nordeste 0 -- -- 100
2021-02-04 21:00:00 4.8 5 Nordeste 9 Nordeste 0 -- -- 100
2021-02-04 20:00:00 4.8 6 Nordeste 10 Nordeste 0 -- -- 99
2021-02-04 19:00:00 4.7 5 Este 18 Sudeste 0 -- -- 99
2021-02-04 18:00:00 5.1 13 Este 18 Este 0 -- -- 98
2021-02-04 17:00:00 5.2 9 Este 21 Este 1.4 -- -- 98
2021-02-04 16:00:00 5.4 9 Sudeste 14 Este 0.6 -- -- 97
2021-02-04 15:00:00 5.7 8 Este 13 Este 0.6 -- -- 97
2021-02-04 14:00:00 5.9 5 Sudeste 7 Este 1.2 -- -- 96
2021-02-04 13:00:00 5.8 3 Sudeste 6 Sudeste 1.4 -- -- 97
2021-02-04 12:00:00 5.8 5 Este 10 Sudeste 2.2 -- -- 97
2021-02-04 11:00:00 6 0 Calma 8 Noroeste 1.4 -- -- 100
2021-02-04 10:00:00 5.6 4 Este 7 Este 0 -- -- 100
2021-02-04 09:00:00 5.2 4 Nordeste 14 Este 0 -- -- 100
2021-02-04 08:00:00 5.4 7 Este 13 Este 0 -- -- 98
2021-02-04 07:00:00 5.6 6 Sudoeste 15 Sudoeste 0 -- -- 99
2021-02-04 06:00:00 5.8 13 Sudoeste 17 Sudoeste 0 -- -- 99
2021-02-04 05:00:00 5.5 13 Sudoeste 21 Sudoeste 0 -- -- 98
2021-02-04 04:00:00 5.9 15 Sudoeste 21 Sudoeste 0 -- -- 99
2021-02-04 03:00:00 6.1 10 Sur 18 Sudoeste 0 -- -- 98
2021-02-04 02:00:00 6.2 17 Sudoeste 24 Sudoeste 0 -- -- 97
2021-02-04 01:00:00 6.6 19 Sudoeste 26 Sudoeste 0 -- -- 95
2021-02-04 00:00:00 6.4 16 Sudoeste 22 Sudoeste 0 -- -- 98
2021-02-03 23:00:00 6.5 20 Sudoeste 30 Sudoeste 0 -- -- 97
2021-02-03 22:00:00 6.9 21 Sudoeste 30 Sudoeste 0 -- -- 96
2021-02-03 21:00:00 7.1 20 Sudoeste 27 Sudoeste 0 -- -- 95
2021-02-03 20:00:00 7.4 17 Sudoeste 30 Sudoeste 0 -- -- 94
2021-02-03 19:00:00 8.3 21 Sudoeste 31 Sudoeste 0 -- -- 91
2021-02-03 18:00:00 9.4 21 Sudoeste 30 Sudoeste 0 -- -- 87
2021-02-03 17:00:00 9.9 24 Sudoeste 35 Sudoeste 0 -- -- 82
2021-02-03 16:00:00 10.1 27 Sudoeste 42 Sudoeste 0 -- -- 81
2021-02-03 15:00:00 10 32 Sudoeste 49 Sudoeste 0 -- -- 84
2021-02-03 14:00:00 10.7 32 Sudoeste 45 Sudoeste 0.2 -- -- 86
2021-02-03 13:00:00 9.1 23 Sudoeste 36 Sudoeste 0 -- -- 95
2021-02-03 12:00:00 8.4 27 Sudoeste 41 Sudoeste 0.2 -- -- 95
2021-02-03 11:00:00 8.2 31 Sudoeste 42 Sudoeste 0.4 -- -- 96
2021-02-03 10:00:00 8.1 27 Sudoeste 38 Sudoeste 0 -- -- 98
2021-02-03 09:00:00 8 27 Sudoeste 36 Sudoeste 0 -- -- 98
2021-02-03 08:00:00 8.1 23 Sudoeste 48 Oeste 0 -- -- 99
2021-02-03 07:00:00 8.5 35 Sudoeste 57 Sudoeste 1.2 -- -- 99
2021-02-03 06:00:00 8.4 34 Sudoeste 54 Sudoeste 0.8 -- -- 99
2021-02-03 05:00:00 8.4 36 Sudoeste 58 Sudoeste 0.4 -- -- 98
2021-02-03 04:00:00 8.5 40 Sudoeste 58 Sudoeste 0.2 -- -- 98
2021-02-03 03:00:00 8.5 40 Sudoeste 60 Sudoeste 0.6 -- -- 97
2021-02-03 02:00:00 8.6 40 Sudoeste 57 Sudoeste 0.6 -- -- 97
2021-02-03 01:00:00 8.7 40 Sudoeste 61 Sudoeste 0.2 -- -- 95
2021-02-03 00:00:00 9.3 40 Sudoeste 60 Sudoeste 0 -- -- 89
2021-02-02 23:00:00 9.2 40 Sudoeste 61 Sudoeste 0 -- -- 89
2021-02-02 22:00:00 9.3 41 Sudoeste 56 Sudoeste 0 -- -- 89
2021-02-02 21:00:00 9.3 36 Sudoeste 52 Sudoeste 0 -- -- 90
2021-02-02 20:00:00 9.5 32 Sudoeste 46 Sudoeste 0 -- -- 91
2021-02-02 19:00:00 9.9 31 Sudoeste 49 Sudoeste 0 -- -- 87
2021-02-02 18:00:00 10 33 Sudoeste 44 Sudoeste 0 -- -- 87
2021-02-02 17:00:00 10.4 24 Sudoeste 42 Sudoeste 0 -- -- 84
2021-02-02 16:00:00 10 19 Sudoeste 33 Sudoeste 0 -- -- 87
2021-02-02 15:00:00 9.8 24 Sudoeste 41 Sudoeste 0 -- -- 89
2021-02-02 14:00:00 9.8 27 Sudoeste 39 Sudoeste 0 -- -- 88
2021-02-02 13:00:00 9.6 29 Sudoeste 39 Sudoeste 0 -- -- 90
2021-02-02 12:00:00 9.2 26 Sudoeste 39 Sudoeste 0 -- -- 92
2021-02-02 11:00:00 8.9 28 Sudoeste 39 Sudoeste 0 -- -- 95
2021-02-02 10:00:00 8.3 22 Sudoeste 32 Sudoeste 0 -- -- 97
2021-02-02 09:00:00 8.1 28 Sudoeste 38 Sudoeste 0 -- -- 97
2021-02-02 08:00:00 8.3 28 Sudoeste 37 Sudoeste 0.2 -- -- 98
2021-02-02 07:00:00 8.4 26 Sudoeste 42 Sudoeste 0 -- -- 98
2021-02-02 06:00:00 8.9 30 Sudoeste 41 Sudoeste 0.2 -- -- 99
2021-02-02 05:00:00 9.2 26 Sudoeste 34 Sudoeste 0.2 -- -- 99
2021-02-02 04:00:00 9.3 25 Sudoeste 39 Sudoeste 0 -- -- 97
2021-02-02 03:00:00 9.5 31 Sudoeste 46 Sudoeste 0 -- -- 97
2021-02-02 02:00:00 9.6 34 Sudoeste 45 Sudoeste 0 -- -- 98
2021-02-02 01:00:00 9.4 29 Sudoeste 37 Sudoeste 0 -- -- 98
2021-02-02 00:00:00 9.1 26 Sudoeste 41 Sudoeste 0 -- -- 97
2021-02-01 23:00:00 9 28 Sudoeste 41 Sudoeste 0.2 -- -- 98
2021-02-01 22:00:00 9.1 21 Sudoeste 33 Sudoeste 0.2 -- -- 97
2021-02-01 21:00:00 9.6 26 Sudoeste 37 Sudoeste 0 -- -- 92
2021-02-01 20:00:00 10.1 16 Sudoeste 30 Sudoeste 0 -- -- 86
2021-02-01 19:00:00 10.5 21 Sudoeste 37 Sudoeste 0 -- -- 81
2021-02-01 18:00:00 10.8 27 Sudoeste 50 Sudoeste 0 -- -- 78
2021-02-01 17:00:00 11.1 34 Sudoeste 47 Sudoeste 0 -- -- 78
2021-02-01 16:00:00 11.4 34 Sudoeste 55 Sudoeste 0 -- -- 78
2021-02-01 15:00:00 11.8 41 Sudoeste 55 Oeste 0 -- -- 74
2021-02-01 14:00:00 11.2 37 Sudoeste 55 Oeste 0 -- -- 77
2021-02-01 13:00:00 10.7 34 Oeste 51 Oeste 0 -- -- 81
2021-02-01 12:00:00 9.8 34 Oeste 48 Oeste 0 -- -- 88
2021-02-01 11:00:00 8.8 36 Oeste 50 Oeste 0 -- -- 94
2021-02-01 10:00:00 9.2 38 Oeste 51 Oeste 0 -- -- 86
2021-02-01 09:00:00 7.9 29 Sudoeste 45 Sudoeste 0 -- -- 90
2021-02-01 08:00:00 8.1 32 Oeste 49 Sudoeste 0 -- -- 88
2021-02-01 07:00:00 8.1 36 Oeste 50 Sudoeste 0 -- -- 88
2021-02-01 06:00:00 8 31 Oeste 42 Oeste 0 -- -- 89
2021-02-01 05:00:00 8 23 Sudoeste 46 Oeste 0 -- -- 88
2021-02-01 04:00:00 8.1 31 Oeste 44 Oeste 0 -- -- 85
2021-02-01 03:00:00 8.1 24 Sudoeste 42 Sudoeste 0 -- -- 85
2021-02-01 02:00:00 8.4 34 Oeste 71 Sudoeste 0 -- -- 82
2021-02-01 01:00:00 8.8 51 Oeste 67 Oeste 0 -- -- 81
2021-02-01 00:00:00 9.4 36 Oeste 64 Oeste 0 -- -- 85
2021-01-31 23:00:00 10.1 43 Oeste 59 Oeste 0 -- -- 87
2021-01-31 22:00:00 10.2 48 Oeste 71 Oeste 0 -- -- 86
2021-01-31 21:00:00 10.4 50 Oeste 71 Oeste 0 -- -- 84
2021-01-31 20:00:00 10.9 50 Oeste 72 Oeste 0 -- -- 83
2021-01-31 19:00:00 11.2 47 Oeste 80 Oeste 0 -- -- 77
2021-01-31 18:00:00 12.7 53 Oeste 81 Oeste 0 -- -- 70
2021-01-31 17:00:00 13.9 57 Oeste 78 Oeste 0 -- -- 71
2021-01-31 16:00:00 14.2 54 Oeste 76 Oeste 0 -- -- 74
2021-01-31 15:00:00 13.8 45 Oeste 73 Oeste 0 -- -- 81
2021-01-31 14:00:00 13.4 41 Oeste 57 Oeste 0 -- -- 83
2021-01-31 13:00:00 11.5 36 Oeste 58 Oeste 0 -- -- 91
2021-01-31 12:00:00 9.9 35 Sudoeste 54 Sudoeste 0 -- -- 95
2021-01-31 11:00:00 8.9 35 Sudoeste 49 Sudoeste 0 -- -- 96
2021-01-31 10:00:00 7.9 31 Sudoeste 40 Oeste 0 -- -- 97
2021-01-31 09:00:00 7 28 Sudoeste 37 Sudoeste 0 -- -- 97
2021-01-31 08:00:00 6.6 18 Sudoeste 36 Sudoeste 0 -- -- 95
2021-01-31 07:00:00 6.6 27 Sudoeste 40 Sudoeste 0 -- -- 92
2021-01-31 06:00:00 6.4 31 Oeste 40 Oeste 0 -- -- 87
2021-01-31 05:00:00 6.2 34 Oeste 46 Oeste 0 -- -- 85
2021-01-31 04:00:00 6 28 Oeste 39 Sudoeste 0 -- -- 85
2021-01-31 03:00:00 5.2 24 Oeste 41 Oeste 0 -- -- 87
2021-01-31 02:00:00 5.8 30 Oeste 51 Oeste 0 -- -- 84
2021-01-31 01:00:00 6.3 36 Oeste 63 Oeste 0.2 -- -- 81
2021-01-31 00:00:00 6 27 Oeste 48 Oeste 0 -- -- 88